createdAt,value
2019-04-07T00:01:53.846Z,26.13
2019-04-07T00:06:58.840Z,25.60
2019-04-07T00:12:03.428Z,25.00
2019-04-07T00:17:08.281Z,21.87
2019-04-07T00:22:13.358Z,23.33
2019-04-07T00:27:17.928Z,25.83
2019-04-07T00:32:22.422Z,20.00
2019-04-07T00:37:27.336Z,21.37
2019-04-07T00:42:31.834Z,23.13
2019-04-07T00:47:37.228Z,22.90
2019-04-07T00:52:41.725Z,23.80
2019-04-07T00:57:46.154Z,24.27
2019-04-07T01:02:50.652Z,24.33
2019-04-07T01:07:56.425Z,26.23
2019-04-07T01:13:01.069Z,23.20
2019-04-07T01:18:05.599Z,23.20
2019-04-07T01:23:10.624Z,23.63
2019-04-07T01:28:15.001Z,22.47
2019-04-07T01:33:19.425Z,24.43
2019-04-07T01:38:23.871Z,26.60
2019-04-07T01:43:32.742Z,29.47
2019-04-07T01:48:38.846Z,29.10
2019-04-07T01:53:51.862Z,44.97
2019-04-07T01:59:04.006Z,28.33
2019-04-07T02:04:10.197Z,27.67
2019-04-07T02:09:17.326Z,26.40
2019-04-07T02:14:41.989Z,23.77
2019-04-07T02:20:06.763Z,19.70
2019-04-07T02:25:16.113Z,29.60
2019-04-07T02:30:31.091Z,23.73
2019-04-07T02:35:56.058Z,22.93
2019-04-07T02:41:10.315Z,21.60
2019-04-07T02:46:22.554Z,24.67
2019-04-07T02:51:38.849Z,26.10
2019-04-07T02:56:48.512Z,24.90
2019-04-07T03:01:55.315Z,25.53
2019-04-07T03:07:04.809Z,24.20
2019-04-07T03:12:17.794Z,26.03
2019-04-07T03:17:24.033Z,23.33
2019-04-07T03:22:47.109Z,21.70
2019-04-07T03:27:55.902Z,20.27
2019-04-07T03:33:05.172Z,21.57
2019-04-07T03:38:27.300Z,20.10
2019-04-07T03:43:37.890Z,22.03
2019-04-07T03:48:53.691Z,21.57
2019-04-07T03:54:00.604Z,23.62
2019-04-07T03:59:16.490Z,21.63
2019-04-07T04:04:25.408Z,22.93
2019-04-07T04:09:48.077Z,21.33
2019-04-07T04:15:03.643Z,21.13
2019-04-07T04:20:08.492Z,21.00
2019-04-07T04:25:15.535Z,20.47
2019-04-07T04:30:21.098Z,20.20
2019-04-07T04:35:26.619Z,22.73
2019-04-07T04:40:32.299Z,22.03
2019-04-07T04:45:36.861Z,21.57
2019-04-07T04:50:42.025Z,17.80
2019-04-07T04:55:47.179Z,19.17
2019-04-07T05:00:52.380Z,21.30
2019-04-07T05:05:57.566Z,22.80
2019-04-07T05:11:02.294Z,28.40
2019-04-07T05:16:07.133Z,32.43
2019-04-07T05:21:11.861Z,38.33
2019-04-07T05:26:16.312Z,37.10
2019-04-07T05:31:21.063Z,37.30
2019-04-07T05:36:26.885Z,37.17
2019-04-07T05:41:32.645Z,39.90
2019-04-07T05:46:40.102Z,38.50
2019-04-07T05:51:44.629Z,36.27
2019-04-07T05:56:49.303Z,40.47
2019-04-07T06:01:59.339Z,35.33
2019-04-07T06:07:00.914Z,41.27
2019-04-07T06:12:07.984Z,38.80
2019-04-07T06:17:12.051Z,38.50
2019-04-07T06:22:19.371Z,37.43
2019-04-07T06:27:22.889Z,32.63
2019-04-07T06:32:27.507Z,35.60
2019-04-07T06:37:32.188Z,30.77
2019-04-07T06:42:37.545Z,32.90
2019-04-07T06:47:43.757Z,32.83
2019-04-07T06:52:56.602Z,30.53
2019-04-07T06:58:06.068Z,33.73
2019-04-07T07:03:18.218Z,33.47
2019-04-07T07:08:26.869Z,33.60
2019-04-07T07:13:36.374Z,31.53
2019-04-07T07:19:02.052Z,29.40
2019-04-07T07:24:07.133Z,30.53
2019-04-07T07:29:14.675Z,29.60
2019-04-07T07:34:18.708Z,31.17
2019-04-07T07:39:23.420Z,35.33
2019-04-07T07:44:28.870Z,31.93
2019-04-07T07:49:36.085Z,31.13
2019-04-07T07:54:40.160Z,31.30
2019-04-07T07:59:44.772Z,33.30
2019-04-07T08:04:49.948Z,31.63
2019-04-07T08:09:56.020Z,31.70
2019-04-07T08:15:00.810Z,28.87
2019-04-07T08:20:07.856Z,30.60
2019-04-07T08:25:12.607Z,27.13
2019-04-07T08:30:18.489Z,28.83
2019-04-07T08:35:23.306Z,31.10
2019-04-07T08:40:28.544Z,27.33
2019-04-07T08:45:33.857Z,26.73
2019-04-07T08:50:38.311Z,26.50
2019-04-07T08:55:42.947Z,24.57
2019-04-07T09:00:51.632Z,25.30
2019-04-07T09:05:57.441Z,24.80
2019-04-07T09:11:13.141Z,24.77
2019-04-07T09:16:34.824Z,20.43
2019-04-07T09:21:59.351Z,18.37
2019-04-07T09:27:09.058Z,20.03
2019-04-07T09:32:21.486Z,21.47
2019-04-07T09:37:37.788Z,22.40
2019-04-07T09:42:46.005Z,21.70
2019-04-07T09:47:52.315Z,23.47
2019-04-07T09:53:01.447Z,21.63
2019-04-07T09:58:14.903Z,21.43
2019-04-07T10:03:21.071Z,20.03
2019-04-07T10:08:39.308Z,21.10
2019-04-07T10:13:49.558Z,23.07
2019-04-07T10:18:56.527Z,21.00
2019-04-07T10:24:02.882Z,22.63
2019-04-07T10:29:23.957Z,21.93
2019-04-07T10:34:33.150Z,22.90
2019-04-07T10:39:39.891Z,21.37
2019-04-07T10:44:52.154Z,25.93
2019-04-07T10:50:06.173Z,19.97
2019-04-07T10:55:11.837Z,21.10
2019-04-07T11:00:35.138Z,19.33
2019-04-07T11:05:53.790Z,21.17
2019-04-07T11:11:12.202Z,18.47
2019-04-07T11:16:22.499Z,18.47
2019-04-07T11:21:33.840Z,19.80
2019-04-07T11:26:55.903Z,17.60
2019-04-07T11:32:17.930Z,17.63
2019-04-07T11:37:27.509Z,19.17
2019-04-07T11:42:37.037Z,18.17
2019-04-07T11:47:46.045Z,16.87
2019-04-07T11:52:52.695Z,16.53
2019-04-07T11:58:10.889Z,16.63
2019-04-07T12:03:13.245Z,17.70
2019-04-07T12:08:37.685Z,15.50
2019-04-07T12:13:56.339Z,15.60
2019-04-07T12:19:15.034Z,19.00
2019-04-07T12:24:33.663Z,16.03
2019-04-07T12:29:56.854Z,17.50
2019-04-07T12:35:09.182Z,16.37
2019-04-07T12:40:18.288Z,22.30
2019-04-07T12:45:39.853Z,17.93
2019-04-07T12:50:49.044Z,16.53
2019-04-07T12:56:03.238Z,17.73
2019-04-07T13:01:16.307Z,17.30
2019-04-07T13:06:24.154Z,16.03
2019-04-07T13:11:49.714Z,16.27
2019-04-07T13:17:00.134Z,16.32
2019-04-07T13:22:13.165Z,17.42
2019-04-07T13:27:22.163Z,17.25
2019-04-07T13:32:42.177Z,17.87
2019-04-07T13:37:44.933Z,17.98
2019-04-07T13:43:06.831Z,17.50
2019-04-07T13:48:28.957Z,17.15
2019-04-07T13:53:37.937Z,16.77
2019-04-07T13:58:44.287Z,21.50
2019-04-07T14:03:56.539Z,16.10
2019-04-07T14:09:02.571Z,19.90
2019-04-07T14:14:13.091Z,16.07
2019-04-07T14:19:29.166Z,16.73
2019-04-07T14:24:38.302Z,17.37
2019-04-07T14:29:44.929Z,15.40
2019-04-07T14:34:56.573Z,15.93
2019-04-07T14:40:15.177Z,19.17
2019-04-07T14:45:25.129Z,17.57
2019-04-07T14:50:34.969Z,15.47
2019-04-07T14:55:49.613Z,16.80
2019-04-07T15:01:08.043Z,16.53
2019-04-07T15:06:12.605Z,15.80
2019-04-07T15:11:19.550Z,16.47
2019-04-07T15:16:24.268Z,16.67
2019-04-07T15:21:29.798Z,15.27
2019-04-07T15:26:34.783Z,15.85
2019-04-07T15:31:39.540Z,17.87
2019-04-07T15:36:44.288Z,16.23
2019-04-07T15:41:49.566Z,15.57
2019-04-07T15:46:54.577Z,16.45
2019-04-07T15:51:59.371Z,16.20
2019-04-07T15:57:05.709Z,16.77
2019-04-07T16:02:11.311Z,15.23
2019-04-07T16:07:18.694Z,15.60
2019-04-07T16:12:23.009Z,16.42
2019-04-07T16:17:27.702Z,18.55
2019-04-07T16:22:32.286Z,15.67
2019-04-07T16:27:39.678Z,16.90
2019-04-07T16:32:44.974Z,18.87
2019-04-07T16:37:49.552Z,17.27
2019-04-07T16:43:09.178Z,17.20
2019-04-07T16:48:04.496Z,16.57
2019-04-07T16:53:08.852Z,25.70
2019-04-07T16:58:14.486Z,22.13
2019-04-07T17:03:19.144Z,23.85
2019-04-07T17:08:24.725Z,19.40
2019-04-07T17:13:39.481Z,20.20
2019-04-07T17:18:39.361Z,22.53
2019-04-07T17:23:45.526Z,26.23
2019-04-07T17:28:50.360Z,28.93
2019-04-07T17:33:55.610Z,20.33
2019-04-07T17:39:14.420Z,20.57
2019-04-07T17:44:26.659Z,24.13
2019-04-07T17:49:41.536Z,29.20
2019-04-07T17:54:52.494Z,28.10
2019-04-07T18:00:04.691Z,45.63
2019-04-07T18:05:22.031Z,43.50
2019-04-07T18:10:26.647Z,38.90
2019-04-07T18:15:38.041Z,38.03
2019-04-07T18:20:54.054Z,33.40
2019-04-07T18:26:04.244Z,28.90
2019-04-07T18:31:11.790Z,28.37
2019-04-07T18:36:20.811Z,31.10
2019-04-07T18:41:40.382Z,40.90
2019-04-07T18:46:50.172Z,40.13
2019-04-07T18:52:01.793Z,37.57
2019-04-07T18:57:16.982Z,44.07
2019-04-07T19:02:30.039Z,39.97
2019-04-07T19:07:38.944Z,38.17
2019-04-07T19:13:01.947Z,39.53
2019-04-07T19:18:01.818Z,37.60
2019-04-07T19:23:26.295Z,45.67
2019-04-07T19:28:35.704Z,34.47
2019-04-07T19:33:56.644Z,36.00
2019-04-07T19:39:21.417Z,39.73
2019-04-07T19:44:35.557Z,42.60
2019-04-07T19:49:34.724Z,43.83
2019-04-07T19:54:42.005Z,41.00
2019-04-07T19:59:52.696Z,36.60
2019-04-07T20:05:05.851Z,38.00
2019-04-07T20:10:16.401Z,38.47
2019-04-07T20:15:26.181Z,48.30
2019-04-07T20:20:43.503Z,46.83
2019-04-07T20:25:49.393Z,53.80
2019-04-07T20:30:56.825Z,50.20
2019-04-07T20:36:19.380Z,47.43
2019-04-07T20:41:22.699Z,92.60
2019-04-07T20:46:34.372Z,64.07
2019-04-07T20:51:58.464Z,43.17
2019-04-07T20:57:04.997Z,36.93
2019-04-07T21:02:27.579Z,35.43
2019-04-07T21:07:40.872Z,34.50
2019-04-07T21:12:56.872Z,36.87
2019-04-07T21:18:04.154Z,35.37
2019-04-07T21:23:16.161Z,39.13
2019-04-07T21:28:39.029Z,35.83
2019-04-07T21:33:57.824Z,35.37
2019-04-07T21:39:09.946Z,41.00
2019-04-07T21:44:32.626Z,41.93
2019-04-07T21:49:51.470Z,39.00
2019-04-07T21:55:08.092Z,38.43
2019-04-07T22:00:21.249Z,39.70
2019-04-07T22:05:41.525Z,47.80
2019-04-07T22:10:49.926Z,51.17
2019-04-07T22:15:57.927Z,51.97
2019-04-07T22:20:59.196Z,57.03
2019-04-07T22:26:04.591Z,48.80
2019-04-07T22:31:12.757Z,43.67
2019-04-07T22:36:17.179Z,45.97
2019-04-07T22:41:22.091Z,44.63
2019-04-07T22:46:28.957Z,48.00
2019-04-07T22:51:33.669Z,51.13
2019-04-07T22:56:40.888Z,49.57
2019-04-07T23:01:45.942Z,51.37
2019-04-07T23:06:52.143Z,52.33
2019-04-07T23:11:56.818Z,53.10
2019-04-07T23:17:01.676Z,51.87
2019-04-07T23:22:06.262Z,52.97
2019-04-07T23:27:10.947Z,48.90
2019-04-07T23:32:15.843Z,48.80
2019-04-07T23:37:20.516Z,53.73
2019-04-07T23:42:25.056Z,53.33
2019-04-07T23:47:29.479Z,56.03
2019-04-07T23:52:33.993Z,48.83
2019-04-07T23:57:38.415Z,47.90
